Lerna, Illinois
Current Conditions -  °F | °C
As of 10:53 AM on Saturday 22 Nov 2014 (Local Time) from KMTO Reporting Station
Overcast Overcast  
Wind Chill: 11°   Ceiling: 4100
Heat Index: 11°   Visibility: 10mi
Dew Point:   Wind: 18mph
Humidity: 74%   Direction: 200°SSW
Pressure: 30.08"   Gusts: 25mph
Location:  39.42°N, 88.29°W
Report Text: KMTO 221653Z AUTO 20016G22KT 10SM OVC041 11/06 A3008 RMK AO2 SLP190 T01060061
Loading
Personal Weather Stations






























Interactive Weather Map New forecast layout! Learn more

10-Day Weather Forecast

Advertisements
Track Severe Weather on mobile